sensor_id;sensor_type;location;lat;lon;timestamp;temperature;humidity
43651;DHT22;29247;50.944;5.382;2022-08-21T00:01:11;17.90;73.00
43651;DHT22;29247;50.944;5.382;2022-08-21T00:03:41;17.80;72.60
43651;DHT22;29247;50.944;5.382;2022-08-21T00:06:07;17.80;72.80
43651;DHT22;29247;50.944;5.382;2022-08-21T00:08:37;17.70;73.20
43651;DHT22;29247;50.944;5.382;2022-08-21T00:11:07;17.70;73.50
43651;DHT22;29247;50.944;5.382;2022-08-21T00:13:33;17.70;73.60
43651;DHT22;29247;50.944;5.382;2022-08-21T00:16:02;17.70;73.70
43651;DHT22;29247;50.944;5.382;2022-08-21T00:18:28;17.70;73.90
43651;DHT22;29247;50.944;5.382;2022-08-21T00:20:54;17.70;73.40
43651;DHT22;29247;50.944;5.382;2022-08-21T00:23:20;17.60;73.40
43651;DHT22;29247;50.944;5.382;2022-08-21T00:25:48;17.50;73.10
43651;DHT22;29247;50.944;5.382;2022-08-21T00:28:14;17.50;73.40
43651;DHT22;29247;50.944;5.382;2022-08-21T00:30:45;17.50;73.90
43651;DHT22;29247;50.944;5.382;2022-08-21T00:33:11;17.40;74.20
43651;DHT22;29247;50.944;5.382;2022-08-21T00:35:39;17.40;74.40
43651;DHT22;29247;50.944;5.382;2022-08-21T00:38:08;17.40;74.10
43651;DHT22;29247;50.944;5.382;2022-08-21T00:40:47;17.40;74.50
43651;DHT22;29247;50.944;5.382;2022-08-21T00:43:17;17.40;74.70
43651;DHT22;29247;50.944;5.382;2022-08-21T00:45:43;17.40;74.60
43651;DHT22;29247;50.944;5.382;2022-08-21T00:48:10;17.40;74.70
43651;DHT22;29247;50.944;5.382;2022-08-21T00:50:43;17.40;74.70
43651;DHT22;29247;50.944;5.382;2022-08-21T00:53:11;17.40;75.20
43651;DHT22;29247;50.944;5.382;2022-08-21T00:55:37;17.40;75.00
43651;DHT22;29247;50.944;5.382;2022-08-21T00:58:11;17.30;75.00
43651;DHT22;29247;50.944;5.382;2022-08-21T01:00:42;17.30;75.00
43651;DHT22;29247;50.944;5.382;2022-08-21T01:03:12;17.30;75.50
43651;DHT22;29247;50.944;5.382;2022-08-21T01:06:04;17.30;74.50
43651;DHT22;29247;50.944;5.382;2022-08-21T01:08:32;17.20;74.60
43651;DHT22;29247;50.944;5.382;2022-08-21T01:11:02;17.30;74.80
43651;DHT22;29247;50.944;5.382;2022-08-21T01:13:31;17.20;74.60
43651;DHT22;29247;50.944;5.382;2022-08-21T01:15:59;17.20;74.70
43651;DHT22;29247;50.944;5.382;2022-08-21T01:18:30;17.20;75.20
43651;DHT22;29247;50.944;5.382;2022-08-21T01:23:30;17.10;74.60
43651;DHT22;29247;50.944;5.382;2022-08-21T01:25:59;17.10;74.70
43651;DHT22;29247;50.944;5.382;2022-08-21T01:28:28;17.10;74.80
43651;DHT22;29247;50.944;5.382;2022-08-21T01:30:56;17.00;75.00
43651;DHT22;29247;50.944;5.382;2022-08-21T01:33:24;17.00;75.00
43651;DHT22;29247;50.944;5.382;2022-08-21T01:35:50;17.00;75.00
43651;DHT22;29247;50.944;5.382;2022-08-21T01:38:16;17.00;74.90
43651;DHT22;29247;50.944;5.382;2022-08-21T01:40:45;16.90;75.00
43651;DHT22;29247;50.944;5.382;2022-08-21T01:43:13;16.90;75.40
43651;DHT22;29247;50.944;5.382;2022-08-21T01:45:39;16.90;75.00
43651;DHT22;29247;50.944;5.382;2022-08-21T01:48:09;16.90;75.00
43651;DHT22;29247;50.944;5.382;2022-08-21T01:50:35;16.90;75.10
43651;DHT22;29247;50.944;5.382;2022-08-21T01:53:01;16.80;75.00
43651;DHT22;29247;50.944;5.382;2022-08-21T01:55:27;16.80;74.70
43651;DHT22;29247;50.944;5.382;2022-08-21T01:57:53;16.70;75.00
43651;DHT22;29247;50.944;5.382;2022-08-21T02:00:21;16.70;75.10
43651;DHT22;29247;50.944;5.382;2022-08-21T02:02:48;16.70;75.20
43651;DHT22;29247;50.944;5.382;2022-08-21T02:05:17;16.70;75.40
43651;DHT22;29247;50.944;5.382;2022-08-21T02:07:48;16.70;75.60
43651;DHT22;29247;50.944;5.382;2022-08-21T02:10:21;16.70;75.50
43651;DHT22;29247;50.944;5.382;2022-08-21T02:12:47;16.70;75.40
43651;DHT22;29247;50.944;5.382;2022-08-21T02:15:34;16.60;75.30
43651;DHT22;29247;50.944;5.382;2022-08-21T02:18:04;16.60;75.30
43651;DHT22;29247;50.944;5.382;2022-08-21T02:20:38;16.60;75.40
43651;DHT22;29247;50.944;5.382;2022-08-21T02:23:05;16.50;75.40
43651;DHT22;29247;50.944;5.382;2022-08-21T02:25:32;16.50;75.60
43651;DHT22;29247;50.944;5.382;2022-08-21T02:28:02;16.50;75.70
43651;DHT22;29247;50.944;5.382;2022-08-21T02:30:35;16.50;75.80
43651;DHT22;29247;50.944;5.382;2022-08-21T02:33:03;16.50;76.20
43651;DHT22;29247;50.944;5.382;2022-08-21T02:35:31;16.50;75.90
43651;DHT22;29247;50.944;5.382;2022-08-21T02:38:00;16.50;75.50
43651;DHT22;29247;50.944;5.382;2022-08-21T02:40:30;16.50;75.60
43651;DHT22;29247;50.944;5.382;2022-08-21T02:42:57;16.40;75.50
43651;DHT22;29247;50.944;5.382;2022-08-21T02:45:25;16.40;75.60
43651;DHT22;29247;50.944;5.382;2022-08-21T02:47:56;16.40;76.00
43651;DHT22;29247;50.944;5.382;2022-08-21T02:50:27;16.40;76.20
43651;DHT22;29247;50.944;5.382;2022-08-21T02:52:53;16.40;76.30
43651;DHT22;29247;50.944;5.382;2022-08-21T02:55:26;16.40;76.20
43651;DHT22;29247;50.944;5.382;2022-08-21T02:57:56;16.30;76.00
43651;DHT22;29247;50.944;5.382;2022-08-21T03:00:24;16.30;76.00
43651;DHT22;29247;50.944;5.382;2022-08-21T03:02:52;16.30;75.90
43651;DHT22;29247;50.944;5.382;2022-08-21T03:05:21;16.30;75.70
43651;DHT22;29247;50.944;5.382;2022-08-21T03:07:48;16.20;75.50
43651;DHT22;29247;50.944;5.382;2022-08-21T03:10:14;16.20;75.90
43651;DHT22;29247;50.944;5.382;2022-08-21T03:12:42;16.20;76.00
43651;DHT22;29247;50.944;5.382;2022-08-21T03:15:13;16.10;75.90
43651;DHT22;29247;50.944;5.382;2022-08-21T03:17:39;16.10;76.10
43651;DHT22;29247;50.944;5.382;2022-08-21T03:20:06;16.10;76.10
43651;DHT22;29247;50.944;5.382;2022-08-21T03:22:33;16.10;76.20
43651;DHT22;29247;50.944;5.382;2022-08-21T03:25:02;16.10;76.30
43651;DHT22;29247;50.944;5.382;2022-08-21T03:27:28;16.00;75.90
43651;DHT22;29247;50.944;5.382;2022-08-21T03:29:56;16.00;75.90
43651;DHT22;29247;50.944;5.382;2022-08-21T03:32:22;16.00;76.30
43651;DHT22;29247;50.944;5.382;2022-08-21T03:34:50;15.90;76.50
43651;DHT22;29247;50.944;5.382;2022-08-21T03:37:20;16.00;76.80
43651;DHT22;29247;50.944;5.382;2022-08-21T03:39:46;15.90;76.90
43651;DHT22;29247;50.944;5.382;2022-08-21T03:42:14;16.00;76.90
43651;DHT22;29247;50.944;5.382;2022-08-21T03:44:42;16.00;76.50
43651;DHT22;29247;50.944;5.382;2022-08-21T03:47:08;15.90;76.30
43651;DHT22;29247;50.944;5.382;2022-08-21T03:49:35;15.90;76.70
43651;DHT22;29247;50.944;5.382;2022-08-21T03:52:04;15.90;77.10
43651;DHT22;29247;50.944;5.382;2022-08-21T03:54:30;15.90;77.30
43651;DHT22;29247;50.944;5.382;2022-08-21T03:56:58;16.00;77.30
43651;DHT22;29247;50.944;5.382;2022-08-21T03:59:24;16.00;77.30
43651;DHT22;29247;50.944;5.382;2022-08-21T04:02:07;16.00;77.20
43651;DHT22;29247;50.944;5.382;2022-08-21T04:04:34;16.00;77.20
43651;DHT22;29247;50.944;5.382;2022-08-21T04:07:02;16.00;76.70
43651;DHT22;29247;50.944;5.382;2022-08-21T04:09:28;16.00;76.80
43651;DHT22;29247;50.944;5.382;2022-08-21T04:11:55;15.90;77.00
43651;DHT22;29247;50.944;5.382;2022-08-21T04:14:21;15.90;77.00
43651;DHT22;29247;50.944;5.382;2022-08-21T04:16:48;16.00;77.00
43651;DHT22;29247;50.944;5.382;2022-08-21T04:19:16;15.90;76.70
43651;DHT22;29247;50.944;5.382;2022-08-21T04:21:42;15.90;76.70
43651;DHT22;29247;50.944;5.382;2022-08-21T04:24:09;15.90;76.10
43651;DHT22;29247;50.944;5.382;2022-08-21T04:26:36;15.80;76.00
43651;DHT22;29247;50.944;5.382;2022-08-21T04:29:03;15.80;76.20
43651;DHT22;29247;50.944;5.382;2022-08-21T04:31:32;15.70;76.40
43651;DHT22;29247;50.944;5.382;2022-08-21T04:34:05;15.80;76.00
43651;DHT22;29247;50.944;5.382;2022-08-21T04:36:33;15.70;76.40
43651;DHT22;29247;50.944;5.382;2022-08-21T04:39:01;15.60;75.70
43651;DHT22;29247;50.944;5.382;2022-08-21T04:41:29;15.60;75.70
43651;DHT22;29247;50.944;5.382;2022-08-21T04:43:55;15.50;75.80
43651;DHT22;29247;50.944;5.382;2022-08-21T04:46:22;15.50;76.20
43651;DHT22;29247;50.944;5.382;2022-08-21T04:48:48;15.50;76.50
43651;DHT22;29247;50.944;5.382;2022-08-21T04:51:43;15.50;76.80
43651;DHT22;29247;50.944;5.382;2022-08-21T04:54:30;15.50;77.50
43651;DHT22;29247;50.944;5.382;2022-08-21T04:57:05;15.50;77.70
43651;DHT22;29247;50.944;5.382;2022-08-21T04:59:39;15.50;77.50
43651;DHT22;29247;50.944;5.382;2022-08-21T05:02:09;15.50;77.20
43651;DHT22;29247;50.944;5.382;2022-08-21T05:04:39;15.50;77.30
43651;DHT22;29247;50.944;5.382;2022-08-21T05:07:13;15.50;77.60
43651;DHT22;29247;50.944;5.382;2022-08-21T05:09:42;15.50;77.70
43651;DHT22;29247;50.944;5.382;2022-08-21T05:12:11;15.50;77.40
43651;DHT22;29247;50.944;5.382;2022-08-21T05:14:40;15.50;77.60
43651;DHT22;29247;50.944;5.382;2022-08-21T05:17:06;15.50;78.00
43651;DHT22;29247;50.944;5.382;2022-08-21T05:19:32;15.50;78.10
43651;DHT22;29247;50.944;5.382;2022-08-21T05:22:00;15.60;78.10
43651;DHT22;29247;50.944;5.382;2022-08-21T05:24:27;15.60;78.20
43651;DHT22;29247;50.944;5.382;2022-08-21T05:26:55;15.60;78.30
43651;DHT22;29247;50.944;5.382;2022-08-21T05:29:21;15.70;78.40
43651;DHT22;29247;50.944;5.382;2022-08-21T05:31:47;15.70;78.40
43651;DHT22;29247;50.944;5.382;2022-08-21T05:34:17;15.70;78.40
43651;DHT22;29247;50.944;5.382;2022-08-21T05:36:44;15.70;78.60
43651;DHT22;29247;50.944;5.382;2022-08-21T05:39:14;15.80;78.80
43651;DHT22;29247;50.944;5.382;2022-08-21T05:41:42;15.80;79.70
43651;DHT22;29247;50.944;5.382;2022-08-21T05:44:10;15.80;79.00
43651;DHT22;29247;50.944;5.382;2022-08-21T05:46:36;15.80;79.20
43651;DHT22;29247;50.944;5.382;2022-08-21T05:49:02;15.90;79.20
43651;DHT22;29247;50.944;5.382;2022-08-21T05:51:30;15.90;79.30
43651;DHT22;29247;50.944;5.382;2022-08-21T05:53:56;16.00;79.40
43651;DHT22;29247;50.944;5.382;2022-08-21T05:56:24;16.00;79.40
43651;DHT22;29247;50.944;5.382;2022-08-21T05:58:50;16.00;79.40
43651;DHT22;29247;50.944;5.382;2022-08-21T06:01:16;16.10;79.40
43651;DHT22;29247;50.944;5.382;2022-08-21T06:03:42;16.10;79.30
43651;DHT22;29247;50.944;5.382;2022-08-21T06:06:09;16.10;79.30
43651;DHT22;29247;50.944;5.382;2022-08-21T06:08:37;16.10;79.40
43651;DHT22;29247;50.944;5.382;2022-08-21T06:11:04;16.20;79.50
43651;DHT22;29247;50.944;5.382;2022-08-21T06:13:33;16.20;79.50
43651;DHT22;29247;50.944;5.382;2022-08-21T06:16:11;16.30;79.60
43651;DHT22;29247;50.944;5.382;2022-08-21T06:18:38;16.30;79.60
43651;DHT22;29247;50.944;5.382;2022-08-21T06:21:04;16.30;79.60
43651;DHT22;29247;50.944;5.382;2022-08-21T06:23:33;16.40;79.70
43651;DHT22;29247;50.944;5.382;2022-08-21T06:26:03;16.40;79.70
43651;DHT22;29247;50.944;5.382;2022-08-21T06:28:30;16.50;79.70
43651;DHT22;29247;50.944;5.382;2022-08-21T06:30:56;16.50;79.60
43651;DHT22;29247;50.944;5.382;2022-08-21T06:33:22;16.50;79.60
43651;DHT22;29247;50.944;5.382;2022-08-21T06:35:47;16.50;79.50
43651;DHT22;29247;50.944;5.382;2022-08-21T06:38:13;16.60;79.60
43651;DHT22;29247;50.944;5.382;2022-08-21T06:40:39;16.60;79.50
43651;DHT22;29247;50.944;5.382;2022-08-21T06:43:14;16.70;79.60
43651;DHT22;29247;50.944;5.382;2022-08-21T06:45:40;16.70;79.50
43651;DHT22;29247;50.944;5.382;2022-08-21T06:48:11;16.80;79.50
43651;DHT22;29247;50.944;5.382;2022-08-21T06:50:39;16.80;79.40
43651;DHT22;29247;50.944;5.382;2022-08-21T06:53:10;16.90;79.50
43651;DHT22;29247;50.944;5.382;2022-08-21T06:55:37;16.90;79.40
43651;DHT22;29247;50.944;5.382;2022-08-21T06:58:03;16.90;79.20
43651;DHT22;29247;50.944;5.382;2022-08-21T07:00:30;16.90;79.10
43651;DHT22;29247;50.944;5.382;2022-08-21T07:02:56;17.00;79.10
43651;DHT22;29247;50.944;5.382;2022-08-21T07:05:25;17.10;79.00
43651;DHT22;29247;50.944;5.382;2022-08-21T07:07:51;17.10;78.90
43651;DHT22;29247;50.944;5.382;2022-08-21T07:10:17;17.20;78.90
43651;DHT22;29247;50.944;5.382;2022-08-21T07:12:43;17.20;78.90
43651;DHT22;29247;50.944;5.382;2022-08-21T07:15:11;17.30;78.80
43651;DHT22;29247;50.944;5.382;2022-08-21T07:17:37;17.40;78.70
43651;DHT22;29247;50.944;5.382;2022-08-21T07:20:08;17.40;78.70
43651;DHT22;29247;50.944;5.382;2022-08-21T07:22:36;17.50;78.70
43651;DHT22;29247;50.944;5.382;2022-08-21T07:25:04;17.60;78.60
43651;DHT22;29247;50.944;5.382;2022-08-21T07:27:34;17.70;78.50
43651;DHT22;29247;50.944;5.382;2022-08-21T07:30:01;17.80;78.40
43651;DHT22;29247;50.944;5.382;2022-08-21T07:32:26;17.90;78.10
43651;DHT22;29247;50.944;5.382;2022-08-21T07:34:55;18.10;78.00
43651;DHT22;29247;50.944;5.382;2022-08-21T07:37:20;18.30;77.80
43651;DHT22;29247;50.944;5.382;2022-08-21T07:39:46;18.60;77.70
43651;DHT22;29247;50.944;5.382;2022-08-21T07:42:16;18.80;76.90
43651;DHT22;29247;50.944;5.382;2022-08-21T07:44:46;19.20;76.30
43651;DHT22;29247;50.944;5.382;2022-08-21T07:47:16;19.40;75.40
43651;DHT22;29247;50.944;5.382;2022-08-21T07:49:44;19.50;74.30
43651;DHT22;29247;50.944;5.382;2022-08-21T07:52:11;19.60;73.80
43651;DHT22;29247;50.944;5.382;2022-08-21T07:54:40;19.70;73.20
43651;DHT22;29247;50.944;5.382;2022-08-21T07:57:05;19.70;72.80
43651;DHT22;29247;50.944;5.382;2022-08-21T07:59:31;19.80;72.60
43651;DHT22;29247;50.944;5.382;2022-08-21T08:01:59;19.90;72.50
43651;DHT22;29247;50.944;5.382;2022-08-21T08:04:25;20.00;72.10
43651;DHT22;29247;50.944;5.382;2022-08-21T08:06:53;20.10;71.70
43651;DHT22;29247;50.944;5.382;2022-08-21T08:09:19;20.10;71.50
43651;DHT22;29247;50.944;5.382;2022-08-21T08:11:45;20.30;71.20
43651;DHT22;29247;50.944;5.382;2022-08-21T08:14:14;20.30;70.90
43651;DHT22;29247;50.944;5.382;2022-08-21T08:16:45;20.40;70.70
43651;DHT22;29247;50.944;5.382;2022-08-21T08:19:10;20.50;70.30
43651;DHT22;29247;50.944;5.382;2022-08-21T08:21:36;20.60;70.00
43651;DHT22;29247;50.944;5.382;2022-08-21T08:24:04;20.60;68.90
43651;DHT22;29247;50.944;5.382;2022-08-21T08:26:31;20.60;68.70
43651;DHT22;29247;50.944;5.382;2022-08-21T08:28:57;20.60;68.80
43651;DHT22;29247;50.944;5.382;2022-08-21T08:31:25;20.70;69.00
43651;DHT22;29247;50.944;5.382;2022-08-21T08:33:51;20.70;68.40
43651;DHT22;29247;50.944;5.382;2022-08-21T08:36:17;20.70;68.50
43651;DHT22;29247;50.944;5.382;2022-08-21T08:38:52;20.70;68.30
43651;DHT22;29247;50.944;5.382;2022-08-21T08:41:22;20.70;68.10
43651;DHT22;29247;50.944;5.382;2022-08-21T08:43:58;20.70;67.90
43651;DHT22;29247;50.944;5.382;2022-08-21T08:46:44;20.80;68.00
43651;DHT22;29247;50.944;5.382;2022-08-21T08:52:08;20.80;67.30
43651;DHT22;29247;50.944;5.382;2022-08-21T08:54:48;20.80;67.00
43651;DHT22;29247;50.944;5.382;2022-08-21T08:57:20;20.90;66.50
43651;DHT22;29247;50.944;5.382;2022-08-21T08:59:52;21.00;66.30
43651;DHT22;29247;50.944;5.382;2022-08-21T09:02:19;21.00;66.20
43651;DHT22;29247;50.944;5.382;2022-08-21T09:04:52;21.00;66.00
43651;DHT22;29247;50.944;5.382;2022-08-21T09:10:54;21.10;66.60
43651;DHT22;29247;50.944;5.382;2022-08-21T09:13:49;21.20;65.30
43651;DHT22;29247;50.944;5.382;2022-08-21T09:16:24;21.20;65.20
43651;DHT22;29247;50.944;5.382;2022-08-21T09:18:57;21.20;65.30
43651;DHT22;29247;50.944;5.382;2022-08-21T09:21:43;21.20;65.30
43651;DHT22;29247;50.944;5.382;2022-08-21T09:29:18;21.40;65.60
43651;DHT22;29247;50.944;5.382;2022-08-21T09:31:46;21.40;65.00
43651;DHT22;29247;50.944;5.382;2022-08-21T09:34:12;21.50;64.60
43651;DHT22;29247;50.944;5.382;2022-08-21T09:36:47;21.50;64.40
43651;DHT22;29247;50.944;5.382;2022-08-21T09:39:27;21.50;64.20
43651;DHT22;29247;50.944;5.382;2022-08-21T09:42:03;21.60;64.40
43651;DHT22;29247;50.944;5.382;2022-08-21T09:44:32;21.60;64.30
43651;DHT22;29247;50.944;5.382;2022-08-21T09:46:59;21.60;64.20
43651;DHT22;29247;50.944;5.382;2022-08-21T09:49:33;21.70;64.00
43651;DHT22;29247;50.944;5.382;2022-08-21T09:52:03;21.70;64.20
43651;DHT22;29247;50.944;5.382;2022-08-21T09:54:37;21.70;63.40
43651;DHT22;29247;50.944;5.382;2022-08-21T10:00:20;21.70;63.00
43651;DHT22;29247;50.944;5.382;2022-08-21T10:02:49;21.70;63.50
43651;DHT22;29247;50.944;5.382;2022-08-21T10:05:22;21.80;63.50
43651;DHT22;29247;50.944;5.382;2022-08-21T10:07:51;21.90;63.60
43651;DHT22;29247;50.944;5.382;2022-08-21T10:10:20;22.00;63.50
43651;DHT22;29247;50.944;5.382;2022-08-21T10:21:55;22.20;62.90
43651;DHT22;29247;50.944;5.382;2022-08-21T10:24:38;22.30;62.40
43651;DHT22;29247;50.944;5.382;2022-08-21T10:30:07;22.40;61.80
43651;DHT22;29247;50.944;5.382;2022-08-21T10:33:10;22.40;61.50
43651;DHT22;29247;50.944;5.382;2022-08-21T10:35:42;22.40;61.00
43651;DHT22;29247;50.944;5.382;2022-08-21T10:46:51;22.50;58.80
43651;DHT22;29247;50.944;5.382;2022-08-21T10:54:53;22.60;59.20
43651;DHT22;29247;50.944;5.382;2022-08-21T10:57:48;22.60;58.80
43651;DHT22;29247;50.944;5.382;2022-08-21T11:00:21;22.60;59.10
43651;DHT22;29247;50.944;5.382;2022-08-21T11:03:03;22.60;59.20
43651;DHT22;29247;50.944;5.382;2022-08-21T11:05:44;22.50;59.30
43651;DHT22;29247;50.944;5.382;2022-08-21T11:08:26;22.60;59.70
43651;DHT22;29247;50.944;5.382;2022-08-21T11:11:05;22.60;59.70
43651;DHT22;29247;50.944;5.382;2022-08-21T11:14:00;22.70;59.60
43651;DHT22;29247;50.944;5.382;2022-08-21T11:19:35;22.80;59.70
43651;DHT22;29247;50.944;5.382;2022-08-21T11:22:27;22.90;59.20
43651;DHT22;29247;50.944;5.382;2022-08-21T11:27:34;22.90;58.30
43651;DHT22;29247;50.944;5.382;2022-08-21T11:30:03;22.90;58.40
43651;DHT22;29247;50.944;5.382;2022-08-21T11:36:08;23.00;58.50
43651;DHT22;29247;50.944;5.382;2022-08-21T11:38:42;23.10;58.30
43651;DHT22;29247;50.944;5.382;2022-08-21T11:43:57;23.20;57.80
43651;DHT22;29247;50.944;5.382;2022-08-21T11:52:48;23.30;57.30
43651;DHT22;29247;50.944;5.382;2022-08-21T11:55:38;23.40;57.60
43651;DHT22;29247;50.944;5.382;2022-08-21T11:58:13;23.40;57.10
43651;DHT22;29247;50.944;5.382;2022-08-21T12:03:44;23.40;56.80
43651;DHT22;29247;50.944;5.382;2022-08-21T12:06:28;23.50;56.70
43651;DHT22;29247;50.944;5.382;2022-08-21T12:09:01;23.40;56.30
43651;DHT22;29247;50.944;5.382;2022-08-21T12:11:27;23.40;55.90
43651;DHT22;29247;50.944;5.382;2022-08-21T12:16:37;23.30;55.60
43651;DHT22;29247;50.944;5.382;2022-08-21T12:19:09;23.30;55.80
43651;DHT22;29247;50.944;5.382;2022-08-21T12:24:53;23.20;56.00
43651;DHT22;29247;50.944;5.382;2022-08-21T12:27:40;23.20;55.60
43651;DHT22;29247;50.944;5.382;2022-08-21T12:30:33;23.10;55.70
43651;DHT22;29247;50.944;5.382;2022-08-21T12:33:05;23.10;56.00
43651;DHT22;29247;50.944;5.382;2022-08-21T12:35:43;23.20;56.00
43651;DHT22;29247;50.944;5.382;2022-08-21T12:38:26;23.20;56.00
43651;DHT22;29247;50.944;5.382;2022-08-21T12:40:59;23.30;56.00
43651;DHT22;29247;50.944;5.382;2022-08-21T12:46:01;23.40;55.90
43651;DHT22;29247;50.944;5.382;2022-08-21T12:48:47;23.40;55.70
43651;DHT22;29247;50.944;5.382;2022-08-21T12:51:29;23.50;55.40
43651;DHT22;29247;50.944;5.382;2022-08-21T12:53:59;23.60;55.60
43651;DHT22;29247;50.944;5.382;2022-08-21T12:56:30;23.60;54.80
43651;DHT22;29247;50.944;5.382;2022-08-21T12:59:01;23.60;54.30
43651;DHT22;29247;50.944;5.382;2022-08-21T13:04:02;23.60;53.90
43651;DHT22;29247;50.944;5.382;2022-08-21T13:06:36;23.50;53.80
43651;DHT22;29247;50.944;5.382;2022-08-21T13:09:11;23.50;53.80
43651;DHT22;29247;50.944;5.382;2022-08-21T13:11:39;23.50;53.50
43651;DHT22;29247;50.944;5.382;2022-08-21T13:16:55;23.50;54.20
43651;DHT22;29247;50.944;5.382;2022-08-21T13:19:21;23.50;54.40
43651;DHT22;29247;50.944;5.382;2022-08-21T13:21:53;23.60;53.30
43651;DHT22;29247;50.944;5.382;2022-08-21T13:26:55;23.60;52.80
43651;DHT22;29247;50.944;5.382;2022-08-21T13:29:28;23.60;53.20
43651;DHT22;29247;50.944;5.382;2022-08-21T13:31:59;23.60;52.80
43651;DHT22;29247;50.944;5.382;2022-08-21T13:34:31;23.70;52.90
43651;DHT22;29247;50.944;5.382;2022-08-21T13:37:07;23.70;52.90
43651;DHT22;29247;50.944;5.382;2022-08-21T13:39:38;23.80;52.60
43651;DHT22;29247;50.944;5.382;2022-08-21T13:42:11;23.90;52.40
43651;DHT22;29247;50.944;5.382;2022-08-21T13:44:44;23.90;52.50
43651;DHT22;29247;50.944;5.382;2022-08-21T13:47:13;24.00;52.20
43651;DHT22;29247;50.944;5.382;2022-08-21T13:49:46;24.00;52.10
43651;DHT22;29247;50.944;5.382;2022-08-21T13:52:26;24.00;51.40
43651;DHT22;29247;50.944;5.382;2022-08-21T13:55:11;24.00;51.50
43651;DHT22;29247;50.944;5.382;2022-08-21T13:57:42;24.00;51.90
43651;DHT22;29247;50.944;5.382;2022-08-21T14:00:27;24.00;51.90
43651;DHT22;29247;50.944;5.382;2022-08-21T14:03:05;24.00;52.30
43651;DHT22;29247;50.944;5.382;2022-08-21T14:05:33;24.00;52.40
43651;DHT22;29247;50.944;5.382;2022-08-21T14:08:12;24.00;52.50
43651;DHT22;29247;50.944;5.382;2022-08-21T14:10:44;24.00;52.70
43651;DHT22;29247;50.944;5.382;2022-08-21T14:16:10;24.00;52.70
43651;DHT22;29247;50.944;5.382;2022-08-21T14:18:48;24.00;52.80
43651;DHT22;29247;50.944;5.382;2022-08-21T14:21:13;24.00;52.70
43651;DHT22;29247;50.944;5.382;2022-08-21T14:26:32;23.90;53.10
43651;DHT22;29247;50.944;5.382;2022-08-21T14:29:02;24.00;53.00
43651;DHT22;29247;50.944;5.382;2022-08-21T14:31:33;24.00;52.60
43651;DHT22;29247;50.944;5.382;2022-08-21T14:34:02;24.00;52.10
43651;DHT22;29247;50.944;5.382;2022-08-21T14:36:31;24.00;52.20
43651;DHT22;29247;50.944;5.382;2022-08-21T14:38:59;24.00;52.30
43651;DHT22;29247;50.944;5.382;2022-08-21T14:41:25;24.00;51.80
43651;DHT22;29247;50.944;5.382;2022-08-21T14:43:53;24.10;52.70
43651;DHT22;29247;50.944;5.382;2022-08-21T14:46:29;24.10;52.20
43651;DHT22;29247;50.944;5.382;2022-08-21T14:48:56;24.10;52.00
43651;DHT22;29247;50.944;5.382;2022-08-21T14:51:28;24.20;52.50
43651;DHT22;29247;50.944;5.382;2022-08-21T14:53:57;24.20;52.00
43651;DHT22;29247;50.944;5.382;2022-08-21T14:56:25;24.20;51.90
43651;DHT22;29247;50.944;5.382;2022-08-21T14:58:52;24.20;51.90
43651;DHT22;29247;50.944;5.382;2022-08-21T15:01:21;24.20;51.90
43651;DHT22;29247;50.944;5.382;2022-08-21T15:03:50;24.30;51.70
43651;DHT22;29247;50.944;5.382;2022-08-21T15:06:18;24.20;51.30
43651;DHT22;29247;50.944;5.382;2022-08-21T15:08:46;24.30;52.00
43651;DHT22;29247;50.944;5.382;2022-08-21T15:11:20;24.20;51.50
43651;DHT22;29247;50.944;5.382;2022-08-21T15:13:55;24.30;52.30
43651;DHT22;29247;50.944;5.382;2022-08-21T15:16:21;24.30;52.30
43651;DHT22;29247;50.944;5.382;2022-08-21T15:18:50;24.30;52.30
43651;DHT22;29247;50.944;5.382;2022-08-21T15:21:20;24.20;52.40
43651;DHT22;29247;50.944;5.382;2022-08-21T15:23:47;24.30;52.00
43651;DHT22;29247;50.944;5.382;2022-08-21T15:26:18;24.20;52.30
43651;DHT22;29247;50.944;5.382;2022-08-21T15:28:44;24.20;52.50
43651;DHT22;29247;50.944;5.382;2022-08-21T15:31:10;24.20;52.30
43651;DHT22;29247;50.944;5.382;2022-08-21T15:33:35;24.20;52.40
43651;DHT22;29247;50.944;5.382;2022-08-21T15:36:01;24.20;51.80
43651;DHT22;29247;50.944;5.382;2022-08-21T15:38:27;24.20;51.70
43651;DHT22;29247;50.944;5.382;2022-08-21T15:40:53;24.20;52.00
43651;DHT22;29247;50.944;5.382;2022-08-21T15:43:26;24.20;52.00
43651;DHT22;29247;50.944;5.382;2022-08-21T15:45:52;24.20;51.90
43651;DHT22;29247;50.944;5.382;2022-08-21T15:48:18;24.20;52.00
43651;DHT22;29247;50.944;5.382;2022-08-21T15:50:46;24.20;52.10
43651;DHT22;29247;50.944;5.382;2022-08-21T15:53:15;24.20;52.40
43651;DHT22;29247;50.944;5.382;2022-08-21T15:55:41;24.20;52.70
43651;DHT22;29247;50.944;5.382;2022-08-21T15:58:12;24.20;52.50
43651;DHT22;29247;50.944;5.382;2022-08-21T16:00:44;24.20;52.90
43651;DHT22;29247;50.944;5.382;2022-08-21T16:03:15;24.20;52.70
43651;DHT22;29247;50.944;5.382;2022-08-21T16:05:47;24.20;52.10
43651;DHT22;29247;50.944;5.382;2022-08-21T16:08:19;24.20;52.50
43651;DHT22;29247;50.944;5.382;2022-08-21T16:10:45;24.30;52.20
43651;DHT22;29247;50.944;5.382;2022-08-21T16:13:20;24.20;52.30
43651;DHT22;29247;50.944;5.382;2022-08-21T16:15:48;24.20;52.70
43651;DHT22;29247;50.944;5.382;2022-08-21T16:18:14;24.30;52.80
43651;DHT22;29247;50.944;5.382;2022-08-21T16:20:44;24.30;52.30
43651;DHT22;29247;50.944;5.382;2022-08-21T16:23:12;24.30;51.90
43651;DHT22;29247;50.944;5.382;2022-08-21T16:25:41;24.30;51.60
43651;DHT22;29247;50.944;5.382;2022-08-21T16:28:13;24.30;51.80
43651;DHT22;29247;50.944;5.382;2022-08-21T16:30:41;24.20;52.00
43651;DHT22;29247;50.944;5.382;2022-08-21T16:33:15;24.20;52.20
43651;DHT22;29247;50.944;5.382;2022-08-21T16:35:45;24.20;52.40
43651;DHT22;29247;50.944;5.382;2022-08-21T16:38:11;24.20;52.20
43651;DHT22;29247;50.944;5.382;2022-08-21T16:40:37;24.10;52.10
43651;DHT22;29247;50.944;5.382;2022-08-21T16:43:03;24.10;51.90
43651;DHT22;29247;50.944;5.382;2022-08-21T16:45:29;24.10;51.90
43651;DHT22;29247;50.944;5.382;2022-08-21T16:47:55;24.00;52.00
43651;DHT22;29247;50.944;5.382;2022-08-21T16:50:23;24.00;52.10
43651;DHT22;29247;50.944;5.382;2022-08-21T16:52:49;24.00;52.10
43651;DHT22;29247;50.944;5.382;2022-08-21T16:55:18;24.00;51.90
43651;DHT22;29247;50.944;5.382;2022-08-21T16:57:46;23.90;51.80
43651;DHT22;29247;50.944;5.382;2022-08-21T17:00:12;23.90;52.00
43651;DHT22;29247;50.944;5.382;2022-08-21T17:02:44;23.90;52.20
43651;DHT22;29247;50.944;5.382;2022-08-21T17:05:11;23.90;52.90
43651;DHT22;29247;50.944;5.382;2022-08-21T17:07:38;23.90;52.40
43651;DHT22;29247;50.944;5.382;2022-08-21T17:10:08;23.90;52.60
43651;DHT22;29247;50.944;5.382;2022-08-21T17:12:34;23.90;52.70
43651;DHT22;29247;50.944;5.382;2022-08-21T17:15:08;23.80;52.80